createdAt,value
2023-07-03T00:00:43.496Z,16.66
2023-07-03T00:03:15.084Z,16.66
2023-07-03T00:05:44.321Z,16.65
2023-07-03T00:08:12.203Z,16.65
2023-07-03T00:10:39.986Z,16.63
2023-07-03T00:13:09.967Z,16.61
2023-07-03T00:15:38.360Z,16.59
2023-07-03T00:18:06.217Z,16.57
2023-07-03T00:20:34.155Z,16.53
2023-07-03T00:23:02.854Z,16.51
2023-07-03T00:25:30.720Z,16.45
2023-07-03T00:27:58.524Z,16.42
2023-07-03T00:30:27.806Z,16.39
2023-07-03T00:32:55.652Z,16.35
2023-07-03T00:35:23.519Z,16.31
2023-07-03T00:37:51.347Z,16.27
2023-07-03T00:40:19.354Z,16.23
2023-07-03T00:42:47.142Z,16.22
2023-07-03T00:45:14.930Z,16.19
2023-07-03T00:47:44.410Z,16.15
2023-07-03T00:50:12.345Z,16.17
2023-07-03T00:52:42.369Z,16.12
2023-07-03T00:55:14.717Z,16.11
2023-07-03T00:57:42.578Z,16.10
2023-07-03T01:00:11.751Z,16.06
2023-07-03T01:02:44.644Z,16.03
2023-07-03T01:05:19.768Z,16.02
2023-07-03T01:07:49.040Z,16.01
2023-07-03T01:10:20.792Z,16.00
2023-07-03T01:12:57.399Z,15.99
2023-07-03T01:15:29.336Z,15.96
2023-07-03T01:17:59.980Z,15.95
2023-07-03T01:20:34.124Z,15.97
2023-07-03T01:23:07.297Z,15.94
2023-07-03T01:25:39.385Z,15.87
2023-07-03T01:28:09.885Z,15.81
2023-07-03T01:30:42.109Z,15.75
2023-07-03T01:33:15.432Z,15.72
2023-07-03T01:35:43.528Z,15.72
2023-07-03T01:38:11.959Z,15.71
2023-07-03T01:40:42.083Z,15.65
2023-07-03T01:43:11.278Z,15.67
2023-07-03T01:45:43.080Z,15.64
2023-07-03T01:48:11.010Z,15.63
2023-07-03T01:50:41.150Z,15.60
2023-07-03T01:53:16.799Z,15.57
2023-07-03T01:55:52.065Z,15.56
2023-07-03T01:58:31.068Z,15.56
2023-07-03T02:01:04.087Z,15.53
2023-07-03T02:03:37.397Z,15.53
2023-07-03T02:06:10.128Z,15.52
2023-07-03T02:08:38.188Z,15.54
2023-07-03T02:11:14.745Z,15.49
2023-07-03T02:13:42.603Z,15.46
2023-07-03T02:16:10.627Z,15.45
2023-07-03T02:18:38.474Z,15.45
2023-07-03T02:21:07.149Z,15.48
2023-07-03T02:23:36.113Z,15.49
2023-07-03T02:26:03.943Z,15.52
2023-07-03T02:28:33.139Z,15.55
2023-07-03T02:31:00.986Z,15.59
2023-07-03T02:33:28.818Z,15.60
2023-07-03T02:35:56.622Z,15.64
2023-07-03T02:38:24.432Z,15.64
2023-07-03T02:40:52.217Z,15.67
2023-07-03T02:43:20.058Z,15.69
2023-07-03T02:45:50.248Z,15.69
2023-07-03T02:48:20.365Z,15.68
2023-07-03T02:50:53.569Z,15.65
2023-07-03T02:53:21.587Z,15.67
2023-07-03T02:55:50.778Z,15.69
2023-07-03T02:58:20.345Z,15.67
2023-07-03T03:00:50.228Z,15.67
2023-07-03T03:03:18.404Z,15.64
2023-07-03T03:05:46.323Z,15.64
2023-07-03T03:08:14.150Z,15.65
2023-07-03T03:10:42.034Z,15.63
2023-07-03T03:13:09.853Z,15.61
2023-07-03T03:15:38.104Z,15.59
2023-07-03T03:18:07.361Z,15.61
2023-07-03T03:20:35.208Z,15.60
2023-07-03T03:23:03.056Z,15.59
2023-07-03T03:25:31.118Z,15.58
2023-07-03T03:28:00.594Z,15.61
2023-07-03T03:30:28.486Z,15.58
2023-07-03T03:32:56.454Z,15.56
2023-07-03T03:35:25.692Z,15.57
2023-07-03T03:37:53.728Z,15.57
2023-07-03T03:40:21.523Z,15.55
2023-07-03T03:42:49.581Z,15.53
2023-07-03T03:47:48.592Z,15.55
2023-07-03T03:50:17.513Z,15.54
2023-07-03T03:52:46.948Z,15.58
2023-07-03T03:55:15.012Z,15.56
2023-07-03T03:57:42.858Z,15.57
2023-07-03T04:00:16.781Z,15.59
2023-07-03T04:02:45.688Z,15.59
2023-07-03T04:05:13.667Z,15.55
2023-07-03T04:07:41.635Z,15.55
2023-07-03T04:10:11.682Z,15.51
2023-07-03T04:12:39.579Z,15.51
2023-07-03T04:15:09.247Z,15.51
2023-07-03T04:17:37.333Z,15.47
2023-07-03T04:20:08.658Z,15.46
2023-07-03T04:22:36.446Z,15.47
2023-07-03T04:25:04.446Z,15.46
2023-07-03T04:27:33.653Z,15.46
2023-07-03T04:30:01.905Z,15.43
2023-07-03T04:32:29.790Z,15.43
2023-07-03T04:34:58.602Z,15.44
2023-07-03T04:37:27.623Z,15.46
2023-07-03T04:39:55.510Z,15.49
2023-07-03T04:42:23.380Z,15.50
2023-07-03T04:44:52.643Z,15.53
2023-07-03T04:47:20.729Z,15.54
2023-07-03T04:49:49.251Z,15.56
2023-07-03T04:52:18.112Z,15.59
2023-07-03T04:54:45.959Z,15.62
2023-07-03T04:57:13.889Z,15.63
2023-07-03T04:59:43.319Z,15.63
2023-07-03T05:02:13.529Z,15.66
2023-07-03T05:04:41.380Z,15.71
2023-07-03T05:07:09.218Z,15.74
2023-07-03T05:09:37.239Z,15.78
2023-07-03T05:12:05.743Z,15.82
2023-07-03T05:14:33.636Z,15.84
2023-07-03T05:17:01.406Z,15.89
2023-07-03T05:19:30.855Z,15.93
2023-07-03T05:21:58.678Z,15.94
2023-07-03T05:24:26.438Z,15.95
2023-07-03T05:26:54.478Z,15.97
2023-07-03T05:29:22.275Z,16.00
2023-07-03T05:31:50.224Z,16.00
2023-07-03T05:34:18.076Z,16.04
2023-07-03T05:36:48.957Z,16.07
2023-07-03T05:39:16.649Z,16.10
2023-07-03T05:41:44.481Z,16.10
2023-07-03T05:44:12.309Z,16.12
2023-07-03T05:46:40.117Z,16.12
2023-07-03T05:49:07.947Z,16.13
2023-07-03T05:51:35.746Z,16.17
2023-07-03T05:54:05.180Z,16.19
2023-07-03T05:56:32.986Z,16.22
2023-07-03T05:59:01.199Z,16.23
2023-07-03T06:01:29.694Z,16.27
2023-07-03T06:03:57.616Z,16.31
2023-07-03T06:06:25.593Z,16.34
2023-07-03T06:08:53.385Z,16.39
2023-07-03T06:11:22.632Z,16.40
2023-07-03T06:13:50.417Z,16.44
2023-07-03T06:16:18.240Z,16.50
2023-07-03T06:18:46.055Z,16.49
2023-07-03T06:21:13.873Z,16.53
2023-07-03T06:23:41.703Z,16.52
2023-07-03T06:26:09.562Z,16.45
2023-07-03T06:28:38.944Z,16.46
2023-07-03T06:31:06.799Z,16.51
2023-07-03T06:33:34.620Z,16.53
2023-07-03T06:36:02.433Z,16.54
2023-07-03T06:38:30.207Z,16.54
2023-07-03T06:40:58.656Z,16.57
2023-07-03T06:43:26.815Z,16.62
2023-07-03T06:45:58.324Z,16.65
2023-07-03T06:48:26.727Z,16.71
2023-07-03T06:51:03.220Z,16.77
2023-07-03T06:53:31.067Z,16.81
2023-07-03T06:55:59.473Z,16.85
2023-07-03T06:58:28.653Z,16.89
2023-07-03T07:00:58.375Z,16.98
2023-07-03T07:03:26.548Z,17.10
2023-07-03T07:05:56.831Z,17.19
2023-07-03T07:08:25.214Z,17.30
2023-07-03T07:10:53.023Z,17.36
2023-07-03T07:13:22.515Z,17.35
2023-07-03T07:15:50.487Z,17.35
2023-07-03T07:18:19.962Z,17.48
2023-07-03T07:20:47.787Z,17.53
2023-07-03T07:23:15.641Z,17.60
2023-07-03T07:25:43.416Z,17.62
2023-07-03T07:28:11.254Z,17.73
2023-07-03T07:30:39.168Z,17.84
2023-07-03T07:33:07.153Z,17.89
2023-07-03T07:35:37.684Z,17.93
2023-07-03T07:38:05.551Z,17.92
2023-07-03T07:40:33.385Z,17.97
2023-07-03T07:43:01.211Z,17.88
2023-07-03T07:45:28.985Z,17.72
2023-07-03T07:47:56.882Z,17.64
2023-07-03T07:50:24.759Z,17.55
2023-07-03T07:52:53.976Z,17.52
2023-07-03T07:55:21.764Z,17.58
2023-07-03T07:57:50.284Z,17.60
2023-07-03T08:00:18.942Z,17.64
2023-07-03T08:02:46.863Z,17.71
2023-07-03T08:05:14.896Z,17.90
2023-07-03T08:07:42.805Z,18.11
2023-07-03T08:10:12.963Z,18.28
2023-07-03T08:12:43.114Z,18.49
2023-07-03T08:15:12.323Z,18.58
2023-07-03T08:17:40.674Z,18.48
2023-07-03T08:20:12.530Z,18.30
2023-07-03T08:22:40.798Z,18.21
2023-07-03T08:25:10.516Z,18.21
2023-07-03T08:27:39.718Z,18.16
2023-07-03T08:30:09.080Z,18.09
2023-07-03T08:32:37.074Z,18.03
2023-07-03T08:37:36.196Z,17.84
2023-07-03T08:40:06.328Z,17.76
2023-07-03T08:42:37.789Z,17.73
2023-07-03T08:45:11.215Z,17.64
2023-07-03T08:47:41.971Z,17.56
2023-07-03T08:50:14.786Z,17.55
2023-07-03T08:52:52.096Z,17.54
2023-07-03T08:55:24.001Z,17.53
2023-07-03T08:57:51.969Z,17.59
2023-07-03T09:00:22.403Z,17.63
2023-07-03T09:02:58.284Z,17.68
2023-07-03T09:05:36.525Z,17.78
2023-07-03T09:08:07.652Z,17.84
2023-07-03T09:10:40.442Z,17.90
2023-07-03T09:13:13.727Z,17.91
2023-07-03T09:15:47.573Z,17.85
2023-07-03T09:18:18.992Z,17.80
2023-07-03T09:20:48.076Z,17.77
2023-07-03T09:23:22.103Z,17.78
2023-07-03T09:25:56.139Z,17.87
2023-07-03T09:28:25.375Z,18.04
2023-07-03T09:30:55.152Z,18.30
2023-07-03T09:33:26.072Z,18.62
2023-07-03T09:35:57.893Z,18.98
2023-07-03T09:38:27.162Z,19.29
2023-07-03T09:40:58.665Z,19.59
2023-07-03T09:43:30.548Z,19.93
2023-07-03T09:46:08.744Z,20.14
2023-07-03T09:48:37.407Z,20.02
2023-07-03T09:51:08.648Z,19.98
2023-07-03T09:53:41.230Z,19.97
2023-07-03T09:56:16.365Z,19.60
2023-07-03T09:58:49.381Z,19.33
2023-07-03T10:04:04.200Z,19.33
2023-07-03T10:07:00.004Z,19.21
2023-07-03T10:12:10.476Z,19.23
2023-07-03T10:14:44.864Z,19.23
2023-07-03T10:17:14.983Z,19.12
2023-07-03T10:19:48.380Z,19.11
2023-07-03T10:22:17.340Z,19.00
2023-07-03T10:24:46.057Z,19.06
2023-07-03T10:27:14.507Z,19.15
2023-07-03T10:29:47.313Z,19.18
2023-07-03T10:32:20.947Z,19.15
2023-07-03T10:34:55.339Z,19.24
2023-07-03T10:37:24.681Z,19.25
2023-07-03T10:39:55.257Z,19.33
2023-07-03T10:42:27.928Z,19.46
2023-07-03T10:45:10.161Z,19.45
2023-07-03T10:47:48.259Z,19.42
2023-07-03T10:50:17.644Z,19.32
2023-07-03T10:52:55.408Z,19.23
2023-07-03T10:55:29.952Z,18.97
2023-07-03T10:58:10.299Z,18.87
2023-07-03T11:00:47.651Z,18.62
2023-07-03T11:03:24.115Z,18.41
2023-07-03T11:06:00.568Z,18.14
2023-07-03T11:08:37.754Z,17.97
2023-07-03T11:11:13.982Z,17.82
2023-07-03T11:13:52.794Z,17.63
2023-07-03T11:16:29.616Z,17.54
2023-07-03T11:24:35.398Z,17.42
2023-07-03T11:29:43.382Z,17.50
2023-07-03T11:32:14.274Z,17.66
2023-07-03T11:40:30.793Z,18.82
2023-07-03T11:46:08.622Z,19.32
2023-07-03T11:48:46.580Z,19.35
2023-07-03T11:51:18.022Z,19.54
2023-07-03T11:53:48.941Z,19.78
2023-07-03T11:56:54.705Z,19.97
2023-07-03T11:59:41.856Z,19.80
2023-07-03T12:02:46.644Z,19.66
2023-07-03T12:05:48.208Z,19.43
2023-07-03T12:08:43.026Z,19.43
2023-07-03T12:11:13.950Z,19.48
2023-07-03T12:13:52.087Z,19.32
2023-07-03T12:16:22.875Z,19.23
2023-07-03T12:18:58.840Z,19.17
2023-07-03T12:21:27.378Z,19.22
2023-07-03T12:23:56.547Z,19.27
2023-07-03T12:26:24.955Z,19.56
2023-07-03T12:29:04.209Z,19.72
2023-07-03T12:31:32.232Z,19.81
2023-07-03T12:34:01.843Z,19.73
2023-07-03T12:36:34.570Z,19.75
2023-07-03T12:39:13.178Z,19.79
2023-07-03T12:41:41.293Z,19.86
2023-07-03T12:44:11.663Z,19.73
2023-07-03T12:46:41.516Z,19.68
2023-07-03T12:49:12.510Z,19.67
2023-07-03T12:51:42.977Z,19.79
2023-07-03T12:54:14.270Z,19.78
2023-07-03T12:56:45.097Z,19.66
2023-07-03T12:59:13.863Z,19.65
2023-07-03T13:01:42.331Z,19.49
2023-07-03T13:04:11.057Z,19.45
2023-07-03T13:06:38.986Z,19.29
2023-07-03T13:09:13.681Z,19.11
2023-07-03T13:11:45.749Z,19.18
2023-07-03T13:14:18.858Z,19.28
2023-07-03T13:16:48.580Z,19.49
2023-07-03T13:19:31.722Z,19.50
2023-07-03T13:22:01.074Z,19.36
2023-07-03T13:24:30.219Z,19.20
2023-07-03T13:27:00.571Z,19.14
2023-07-03T13:29:32.087Z,19.15
2023-07-03T13:32:17.125Z,19.11
2023-07-03T13:34:57.492Z,19.15
2023-07-03T13:37:26.703Z,19.13
2023-07-03T13:40:00.984Z,19.00
2023-07-03T13:42:32.067Z,18.93
2023-07-03T13:45:00.013Z,18.89
2023-07-03T13:47:29.446Z,18.81
2023-07-03T13:49:57.820Z,18.60
2023-07-03T13:52:25.676Z,18.46
2023-07-03T13:54:53.526Z,18.28
2023-07-03T13:57:21.368Z,18.25
2023-07-03T13:59:50.548Z,18.26
2023-07-03T14:02:18.445Z,18.25
2023-07-03T14:04:46.318Z,18.31
2023-07-03T14:07:14.220Z,18.57
2023-07-03T14:09:42.414Z,18.87
2023-07-03T14:12:10.742Z,19.17
2023-07-03T14:14:38.560Z,19.34
2023-07-03T14:17:08.396Z,19.23
2023-07-03T14:19:36.213Z,19.06
2023-07-03T14:22:04.083Z,18.96
2023-07-03T14:24:31.964Z,18.82
2023-07-03T14:27:00.734Z,18.72
2023-07-03T14:29:28.524Z,18.84
2023-07-03T14:31:56.489Z,19.04
2023-07-03T14:34:26.612Z,19.16
2023-07-03T14:36:54.435Z,19.26
2023-07-03T14:39:22.254Z,19.14
2023-07-03T14:41:50.063Z,19.06
2023-07-03T14:44:17.880Z,18.98
2023-07-03T14:46:45.742Z,18.88
2023-07-03T14:49:14.898Z,18.81
2023-07-03T14:51:44.134Z,18.67
2023-07-03T14:54:26.310Z,18.62
2023-07-03T14:57:32.321Z,18.59
2023-07-03T15:00:00.232Z,18.52
2023-07-03T15:02:28.461Z,18.42
2023-07-03T15:04:56.317Z,18.34
2023-07-03T15:07:25.532Z,18.37
2023-07-03T15:09:53.373Z,18.30
2023-07-03T15:12:21.482Z,18.32
2023-07-03T15:14:49.545Z,18.34
2023-07-03T15:17:17.429Z,18.34
2023-07-03T15:19:45.393Z,18.34
2023-07-03T15:22:13.586Z,18.45
2023-07-03T15:24:44.303Z,18.53
2023-07-03T15:27:12.319Z,18.59
2023-07-03T15:29:40.242Z,18.67
2023-07-03T15:32:09.159Z,18.80
2023-07-03T15:34:36.946Z,18.90
2023-07-03T15:37:04.852Z,19.12
2023-07-03T15:39:32.711Z,19.26
2023-07-03T15:42:01.925Z,19.29
2023-07-03T15:44:29.868Z,19.33
2023-07-03T15:46:57.820Z,19.33
2023-07-03T15:49:25.703Z,19.39
2023-07-03T15:51:53.481Z,19.23
2023-07-03T15:54:21.358Z,19.18
2023-07-03T15:56:50.407Z,19.16
2023-07-03T15:59:19.577Z,19.14
2023-07-03T16:01:47.434Z,19.14
2023-07-03T16:04:15.245Z,19.19
2023-07-03T16:06:43.052Z,19.32
2023-07-03T16:09:10.893Z,19.40
2023-07-03T16:11:38.735Z,19.31
2023-07-03T16:14:06.585Z,19.28
2023-07-03T16:16:35.812Z,19.29
2023-07-03T16:19:04.728Z,19.27
2023-07-03T16:21:34.458Z,19.27
2023-07-03T16:24:05.084Z,19.19
2023-07-03T16:26:32.897Z,19.16
2023-07-03T16:29:08.283Z,19.18
2023-07-03T16:31:39.326Z,19.19
2023-07-03T16:34:07.127Z,19.21
2023-07-03T16:36:34.921Z,19.27
2023-07-03T16:39:04.927Z,19.32
2023-07-03T16:41:35.799Z,19.24
2023-07-03T16:44:04.492Z,19.19
2023-07-03T16:46:32.673Z,19.25
2023-07-03T16:49:01.946Z,19.38
2023-07-03T16:51:30.136Z,19.39
2023-07-03T16:53:58.114Z,19.50
2023-07-03T16:56:27.940Z,19.51
2023-07-03T16:58:58.100Z,19.53
2023-07-03T17:01:28.108Z,19.49
2023-07-03T17:03:57.511Z,19.43
2023-07-03T17:06:31.555Z,19.43
2023-07-03T17:08:59.952Z,19.41
2023-07-03T17:11:27.906Z,19.40
2023-07-03T17:13:56.202Z,19.39
2023-07-03T17:16:24.341Z,19.33
2023-07-03T17:18:52.146Z,19.29
2023-07-03T17:21:19.982Z,19.30
2023-07-03T17:23:58.564Z,19.28
2023-07-03T17:26:26.466Z,19.27
2023-07-03T17:28:54.294Z,19.26
2023-07-03T17:31:25.013Z,19.23
2023-07-03T17:33:53.161Z,19.15
2023-07-03T17:36:21.334Z,19.16
2023-07-03T17:38:50.765Z,19.15
2023-07-03T17:41:20.125Z,19.15
2023-07-03T17:43:48.654Z,19.10
2023-07-03T17:46:17.790Z,19.11
2023-07-03T17:48:45.701Z,19.09
2023-07-03T17:51:13.612Z,19.11
2023-07-03T17:53:42.238Z,19.08
2023-07-03T17:56:11.480Z,19.01
2023-07-03T17:58:39.539Z,19.02
2023-07-03T18:01:07.504Z,19.01
2023-07-03T18:03:35.560Z,19.00
2023-07-03T18:06:03.601Z,18.96
2023-07-03T18:08:31.456Z,18.98
2023-07-03T18:10:59.802Z,19.00
2023-07-03T18:13:29.276Z,18.98
2023-07-03T18:15:57.673Z,18.94
2023-07-03T18:18:25.754Z,18.88
2023-07-03T18:20:53.620Z,18.88
2023-07-03T18:23:21.452Z,18.87
2023-07-03T18:25:49.619Z,18.88
2023-07-03T18:28:18.701Z,18.85
2023-07-03T18:30:57.949Z,18.81
2023-07-03T18:33:25.849Z,18.80
2023-07-03T18:35:53.769Z,18.76
2023-07-03T18:38:21.655Z,18.76
2023-07-03T18:40:49.476Z,18.79
2023-07-03T18:43:17.340Z,18.80
2023-07-03T18:45:48.815Z,18.76
2023-07-03T18:48:18.176Z,18.71
2023-07-03T18:50:45.980Z,18.67
2023-07-03T18:53:14.238Z,18.64
2023-07-03T18:55:46.896Z,18.62
2023-07-03T18:58:14.759Z,18.51
2023-07-03T19:00:42.645Z,18.46
2023-07-03T19:03:10.988Z,18.42
2023-07-03T19:05:51.046Z,18.40
2023-07-03T19:08:19.450Z,18.39
2023-07-03T19:10:47.309Z,18.30
2023-07-03T19:13:15.216Z,18.22
2023-07-03T19:15:43.068Z,18.14
2023-07-03T19:18:11.863Z,18.08
2023-07-03T19:20:41.437Z,17.85
2023-07-03T19:23:10.133Z,17.69
2023-07-03T19:25:38.014Z,17.54
2023-07-03T19:28:05.905Z,17.45
2023-07-03T19:30:33.874Z,17.38
2023-07-03T19:33:01.875Z,17.30
2023-07-03T19:35:31.016Z,17.12
2023-07-03T19:38:00.390Z,16.74
2023-07-03T19:40:28.304Z,16.48
2023-07-03T19:42:56.170Z,16.32
2023-07-03T19:45:23.985Z,16.12
2023-07-03T19:47:51.930Z,15.89
2023-07-03T19:50:20.002Z,15.68
2023-07-03T19:52:47.864Z,15.48
2023-07-03T19:55:17.247Z,15.33
2023-07-03T19:57:45.409Z,15.17
2023-07-03T20:00:14.151Z,15.08
2023-07-03T20:02:45.352Z,15.01
2023-07-03T20:05:13.671Z,14.93
2023-07-03T20:07:41.683Z,14.85
2023-07-03T20:10:10.656Z,14.73
2023-07-03T20:12:39.832Z,14.60
2023-07-03T20:15:12.222Z,14.52
2023-07-03T20:17:40.636Z,14.45
2023-07-03T20:20:08.907Z,14.44
2023-07-03T20:22:37.193Z,14.47
2023-07-03T20:25:06.075Z,14.43
2023-07-03T20:27:33.929Z,14.42
2023-07-03T20:30:03.969Z,14.42
2023-07-03T20:32:34.075Z,14.44
2023-07-03T20:35:03.234Z,14.46
2023-07-03T20:37:31.040Z,14.47
2023-07-03T20:39:59.924Z,14.48
2023-07-03T20:42:28.453Z,14.50
2023-07-03T20:44:57.045Z,14.51
2023-07-03T20:47:26.996Z,14.59
2023-07-03T20:49:56.110Z,14.60
2023-07-03T20:52:26.246Z,14.66
2023-07-03T20:55:23.512Z,14.69
2023-07-03T20:57:51.967Z,14.65
2023-07-03T21:00:21.491Z,14.63
2023-07-03T21:02:52.889Z,14.65
2023-07-03T21:05:22.259Z,14.64
2023-07-03T21:07:50.480Z,14.62
2023-07-03T21:10:18.344Z,14.65
2023-07-03T21:12:46.544Z,14.64
2023-07-03T21:15:14.691Z,14.63
2023-07-03T21:17:42.617Z,14.67
2023-07-03T21:20:12.862Z,14.68
2023-07-03T21:22:40.670Z,14.68
2023-07-03T21:25:09.351Z,14.63
2023-07-03T21:27:37.149Z,14.61
2023-07-03T21:30:05.886Z,14.59
2023-07-03T21:32:33.725Z,14.54
2023-07-03T21:35:01.975Z,14.51
2023-07-03T21:37:32.683Z,14.47
2023-07-03T21:40:00.568Z,14.43
2023-07-03T21:42:28.369Z,14.40
2023-07-03T21:44:56.168Z,14.39
2023-07-03T21:47:24.299Z,14.35
2023-07-03T21:49:52.117Z,14.29
2023-07-03T21:52:19.927Z,14.17
2023-07-03T21:54:49.898Z,14.12
2023-07-03T21:57:19.315Z,14.07
2023-07-03T21:59:50.176Z,14.06
2023-07-03T22:02:18.096Z,14.03
2023-07-03T22:04:46.174Z,13.99
2023-07-03T22:07:14.359Z,13.87
2023-07-03T22:09:42.303Z,13.78
2023-07-03T22:12:12.084Z,13.65
2023-07-03T22:14:40.286Z,13.64
2023-07-03T22:17:08.147Z,13.62
2023-07-03T22:19:37.552Z,13.64
2023-07-03T22:22:08.375Z,13.50
2023-07-03T22:24:36.184Z,13.39
2023-07-03T22:27:05.094Z,13.43
2023-07-03T22:29:34.349Z,13.46
2023-07-03T22:32:02.163Z,13.30
2023-07-03T22:34:29.997Z,13.29
2023-07-03T22:36:57.852Z,13.20
2023-07-03T22:39:25.638Z,13.20
2023-07-03T22:41:54.381Z,13.16
2023-07-03T22:44:22.210Z,13.11
2023-07-03T22:46:53.137Z,13.06
2023-07-03T22:49:25.454Z,13.07
2023-07-03T22:51:53.908Z,13.15
2023-07-03T22:54:22.582Z,13.20
2023-07-03T22:56:50.421Z,13.19
2023-07-03T22:59:18.249Z,13.24
2023-07-03T23:01:48.705Z,13.18
2023-07-03T23:04:18.496Z,13.15
2023-07-03T23:06:48.148Z,13.17
2023-07-03T23:09:17.492Z,13.19
2023-07-03T23:11:45.414Z,13.20
2023-07-03T23:14:16.009Z,13.15
2023-07-03T23:16:44.905Z,13.10
2023-07-03T23:19:12.845Z,13.15
2023-07-03T23:21:42.356Z,13.16
2023-07-03T23:24:10.726Z,13.15
2023-07-03T23:26:39.295Z,13.18
2023-07-03T23:29:08.888Z,13.20
2023-07-03T23:31:37.406Z,13.19
2023-07-03T23:34:06.577Z,13.20
2023-07-03T23:36:35.596Z,13.22
2023-07-03T23:39:05.955Z,13.21
2023-07-03T23:41:33.804Z,13.26
2023-07-03T23:44:01.583Z,13.28
2023-07-03T23:46:29.494Z,13.26
2023-07-03T23:48:57.499Z,13.26
2023-07-03T23:51:25.319Z,13.22
2023-07-03T23:53:53.133Z,13.20
2023-07-03T23:56:22.339Z,13.20
2023-07-03T23:58:51.398Z,13.20
